Time;durP1;ratioP1;P1;durP2;ratioP2;P2;SDS_P1;SDS_P2;PMS_P1;PMS_P2;Temp;Humidity;BMP_temperature;BMP_pressure;BME280_temperature;BME280_humidity;BME280_pressure;Samples;Min_cycle;Max_cycle;Signal;HPM_P1;HPM_P2
2023/02/20 00:03:30;;;;;;;2.88;1.92;;;;;;;10.62;58.74;101385.41;12675192;23;20021;-66
2023/02/20 00:08:31;;;;;;;5.35;2.90;;;;;;;10.75;58.57;101387.75;12684389;23;20104;-65
2023/02/20 00:13:32;;;;;;;3.33;2.70;;;;;;;10.74;58.64;101387.91;12646919;23;20030;-62
2023/02/20 00:18:34;;;;;;;6.97;3.20;;;;;;;10.73;58.95;101376.31;12679195;23;20030;-63
2023/02/20 00:23:35;;;;;;;4.60;2.83;;;;;;;10.61;59.40;101389.13;12669667;23;20026;-64
2023/02/20 00:28:41;;;;;;;4.20;2.78;;;;;;;10.46;59.88;101374.47;12633476;23;20030;-65
2023/02/20 00:33:43;;;;;;;6.55;4.18;;;;;;;10.34;60.27;101373.84;12658161;23;20076;-64
2023/02/20 00:38:45;;;;;;;9.90;4.60;;;;;;;10.29;60.28;101370.72;12660689;23;20014;-64
2023/02/20 00:43:46;;;;;;;6.07;3.88;;;;;;;10.15;60.68;101381.94;12661526;23;20026;-65
2023/02/20 00:48:49;;;;;;;4.22;3.17;;;;;;;10.12;60.90;101381.25;12658733;23;20489;-65
2023/02/20 00:53:51;;;;;;;7.25;3.50;;;;;;;10.04;61.12;101385.69;12659967;23;20581;-65
2023/02/20 00:58:53;;;;;;;11.27;4.03;;;;;;;10.05;61.09;101371.25;12658958;23;20032;-61
2023/02/20 01:03:54;;;;;;;9.02;4.45;;;;;;;10.01;61.05;101375.22;12658745;23;20029;-65
2023/02/20 01:08:56;;;;;;;9.13;4.68;;;;;;;9.85;61.65;101371.34;12658616;23;20037;-64
2023/02/20 01:13:57;;;;;;;7.88;3.67;;;;;;;9.80;61.78;101373.59;12635723;23;20428;-64
2023/02/20 01:18:58;;;;;;;8.75;4.22;;;;;;;9.78;62.08;101372.06;12656441;23;20022;-63
2023/02/20 01:24:00;;;;;;;9.40;4.50;;;;;;;9.70;62.67;101373.63;12658767;23;20038;-65
2023/02/20 01:29:02;;;;;;;7.55;4.13;;;;;;;9.72;62.96;101365.44;12664702;23;20033;-63
2023/02/20 01:34:04;;;;;;;5.82;3.72;;;;;;;9.70;63.56;101356.69;12660866;23;20025;-65
2023/02/20 01:39:05;;;;;;;8.88;4.43;;;;;;;9.77;63.44;101355.06;12661412;23;20030;-65
2023/02/20 01:44:17;;;;;;;6.05;3.78;;;;;;;9.77;63.63;101360.44;12662469;23;20037;-64
2023/02/20 01:49:24;;;;;;;9.32;3.78;;;;;;;9.83;63.33;101350.97;12660463;23;20053;-64
2023/02/20 01:54:27;;;;;;;8.82;3.50;;;;;;;9.77;63.49;101340.81;12661986;23;20021;-64
2023/02/20 01:59:32;;;;;;;5.30;3.13;;;;;;;9.80;63.28;101341.38;12661170;23;20047;-65
2023/02/20 02:04:34;;;;;;;6.70;3.40;;;;;;;9.84;63.32;101323.97;12663529;23;20030;-59
2023/02/20 02:09:47;;;;;;;8.75;3.63;;;;;;;9.82;62.99;101323.28;12661965;23;20025;-61
2023/02/20 02:14:49;;;;;;;5.47;2.65;;;;;;;9.81;63.00;101313.50;12662060;23;20025;-59
2023/02/20 02:20:19;;;;;;;7.40;3.40;;;;;;;9.79;63.10;101296.72;12661556;23;20049;-60
2023/02/20 02:25:31;;;;;;;5.13;2.80;;;;;;;9.76;63.07;101314.97;12661979;23;20025;-59
2023/02/20 02:31:19;;;;;;;4.05;2.40;;;;;;;9.83;63.05;101316.06;12660972;23;20014;-59
2023/02/20 02:36:27;;;;;;;5.47;3.13;;;;;;;9.82;62.72;101325.13;12660346;23;20048;-60
2023/02/20 02:41:44;;;;;;;3.47;2.58;;;;;;;9.85;63.00;101311.38;12661510;23;20036;-59
2023/02/20 02:46:55;;;;;;;;;;;;;;;9.82;62.96;101306.31;12663461;23;20022;-59
2023/02/20 02:51:57;;;;;;;4.88;2.90;;;;;;;9.88;62.64;101300.38;12663244;23;19925;-60
2023/02/20 02:57:23;;;;;;;7.20;2.20;;;;;;;9.80;62.76;101300.25;12662150;23;20045;-60
2023/02/20 03:02:34;;;;;;;4.30;2.13;;;;;;;9.78;62.85;101295.03;12663574;23;20484;-60
2023/02/20 03:07:38;;;;;;;5.15;2.78;;;;;;;9.73;63.25;101294.63;12662873;23;20136;-61
2023/02/20 03:12:44;;;;;;;5.97;3.22;;;;;;;9.71;62.94;101289.38;12663091;23;20484;-60
2023/02/20 03:18:00;;;;;;;7.50;2.95;;;;;;;9.68;62.97;101289.69;12662856;23;20094;-59
2023/02/20 03:23:05;;;;;;;9.13;3.13;;;;;;;9.59;63.41;101295.09;12662788;23;20026;-59
2023/02/20 03:28:26;;;;;;;7.70;3.75;;;;;;;9.60;63.35;101302.16;12661011;23;20028;-61
2023/02/20 03:44:25;;;;;;;9.35;4.28;;;;;;;9.36;63.70;101321.41;12662281;23;20030;-59
2023/02/20 03:49:37;;;;;;;8.98;4.15;;;;;;;9.27;63.82;101315.09;12659822;23;20350;-60
2023/02/20 03:54:39;;;;;;;11.00;4.22;;;;;;;9.24;64.04;101310.88;12662136;23;20382;-60
2023/02/20 03:59:49;;;;;;;9.30;4.75;;;;;;;9.27;63.87;101323.13;12660584;23;20025;-61
2023/02/20 04:04:54;;;;;;;20.77;6.03;;;;;;;9.27;64.17;101304.34;12662811;23;20026;-60
2023/02/20 04:10:00;;;;;;;10.32;4.18;;;;;;;9.23;64.14;101295.75;12660065;23;20081;-60
2023/02/20 04:15:04;;;;;;;8.80;3.75;;;;;;;9.15;64.22;101284.06;12634478;23;20018;-60
2023/02/20 04:20:05;;;;;;;11.18;4.20;;;;;;;9.13;64.41;101289.56;12660099;23;20026;-59
2023/02/20 04:25:39;;;;;;;10.02;5.28;;;;;;;9.11;64.32;101295.06;12659657;23;20017;-61
2023/02/20 04:30:41;;;;;;;7.03;3.85;;;;;;;9.09;64.07;101309.59;12648430;23;20113;-61
2023/02/20 04:35:42;;;;;;;13.55;4.78;;;;;;;8.99;64.37;101301.56;12656563;23;20835;-60
2023/02/20 04:40:44;;;;;;;11.07;4.60;;;;;;;8.92;64.30;101305.78;12659971;23;20030;-59
2023/02/20 04:45:45;;;;;;;11.02;4.55;;;;;;;8.92;64.46;101303.94;12599005;23;20030;-60
2023/02/20 04:50:46;;;;;;;11.80;4.05;;;;;;;8.82;64.86;101303.09;12599572;23;20542;-60
2023/02/20 04:55:48;;;;;;;8.40;4.90;;;;;;;8.71;64.72;101293.38;12598135;23;20026;-60
2023/02/20 05:00:49;;;;;;;12.95;4.97;;;;;;;8.77;64.63;101293.78;12598148;23;20355;-60
2023/02/20 05:05:51;;;;;;;13.38;5.22;;;;;;;8.74;64.39;101298.44;12600015;23;20440;-58
2023/02/20 05:10:52;;;;;;;11.32;5.07;;;;;;;8.70;64.19;101286.31;12602142;23;20026;-58
2023/02/20 05:15:53;;;;;;;14.00;5.50;;;;;;;8.66;64.42;101281.38;12599744;23;20022;-59
2023/02/20 05:26:19;;;;;;;13.00;4.38;;;;;;;8.51;65.01;101292.53;12600413;23;20060;-59
2023/02/20 05:31:20;;;;;;;14.80;4.68;;;;;;;8.44;64.92;101296.75;12600878;23;20085;-59
2023/02/20 05:36:22;;;;;;;8.98;4.05;;;;;;;8.29;65.33;101303.44;12598661;23;20371;-58
2023/02/20 05:41:23;;;;;;;9.55;3.70;;;;;;;8.17;65.86;101288.47;12608102;23;20025;-60
2023/02/20 05:46:26;;;;;;;6.90;3.53;;;;;;;8.09;65.97;101279.28;12660840;23;20018;-59
2023/02/20 05:51:28;;;;;;;8.05;4.13;;;;;;;8.10;65.97;101290.84;12660276;23;20018;-60
2023/02/20 05:56:31;;;;;;;10.75;4.00;;;;;;;7.97;66.88;101291.09;12667181;23;20366;-59
2023/02/20 06:01:33;;;;;;;9.15;3.53;;;;;;;7.94;66.77;101283.34;12660828;23;20324;-61
2023/02/20 06:06:39;;;;;;;6.55;3.30;;;;;;;7.87;67.19;101280.34;12658812;23;20497;-59
2023/02/20 06:11:46;;;;;;;10.32;4.03;;;;;;;7.84;67.10;101263.69;12661535;23;20027;-61
2023/02/20 06:16:48;;;;;;;9.03;3.10;;;;;;;7.89;67.22;101248.94;12661410;23;20025;-60
2023/02/20 06:21:52;;;;;;;6.82;4.15;;;;;;;7.83;67.09;101252.16;12659047;23;20022;-60
2023/02/20 06:26:54;;;;;;;8.40;3.90;;;;;;;7.84;66.92;101239.59;12668983;23;20018;-61
2023/02/20 06:31:58;;;;;;;10.48;4.05;;;;;;;7.92;67.21;101259.38;12694891;23;20033;-61
2023/02/20 06:37:04;;;;;;;8.15;3.63;;;;;;;7.87;67.73;101248.22;12696644;23;20018;-62
2023/02/20 06:42:06;;;;;;;11.63;3.60;;;;;;;7.86;68.00;101259.06;12694202;23;20022;-60
2023/02/20 06:47:10;;;;;;;13.50;3.97;;;;;;;7.85;68.46;101270.75;12691877;23;20041;-61
2023/02/20 06:52:12;;;;;;;13.82;3.60;;;;;;;7.87;68.10;101264.28;12689957;23;20026;-59
2023/02/20 06:57:14;;;;;;;11.85;4.28;;;;;;;7.98;68.24;101265.16;12680330;23;20449;-60
2023/02/20 07:02:16;;;;;;;9.15;4.40;;;;;;;7.94;68.53;101276.16;12686388;23;20018;-59
2023/02/20 07:07:18;;;;;;;17.80;5.63;;;;;;;7.93;68.24;101271.75;12688049;23;20461;-60
2023/02/20 07:12:19;;;;;;;12.93;5.25;;;;;;;7.92;68.58;101271.94;12688239;23;20018;-59
2023/02/20 07:17:20;;;;;;;12.73;5.03;;;;;;;8.02;67.91;101272.78;12689393;23;20022;-61
2023/02/20 07:22:22;;;;;;;13.00;5.78;;;;;;;7.95;68.69;101269.81;12692719;23;20022;-63
2023/02/20 07:27:23;;;;;;;11.40;5.35;;;;;;;7.94;69.12;101264.59;12689851;23;20018;-59
2023/02/20 07:32:24;;;;;;;8.98;4.43;;;;;;;7.94;68.56;101252.06;12694154;23;20026;-62
2023/02/20 07:37:26;;;;;;;9.55;4.60;;;;;;;8.02;69.36;101267.44;12694331;23;20033;-63
2023/02/20 07:42:27;;;;;;;12.77;4.70;;;;;;;8.06;68.93;101247.44;12694220;23;20030;-61
2023/02/20 07:47:28;;;;;;;14.65;4.97;;;;;;;8.07;69.44;101249.13;12696764;23;20143;-63
2023/02/20 07:52:30;;;;;;;9.80;4.55;;;;;;;8.21;69.20;101245.19;12698205;23;20026;-62
2023/02/20 07:57:33;;;;;;;13.32;4.82;;;;;;;8.35;68.62;101238.59;12696923;23;20149;-64
2023/02/20 08:02:35;;;;;;;12.90;4.85;;;;;;;8.40;69.15;101240.88;12697470;23;20058;-64
2023/02/20 08:07:37;;;;;;;8.98;4.30;;;;;;;8.48;69.38;101233.84;12698748;23;20060;-62
2023/02/20 08:12:39;;;;;;;13.98;4.95;;;;;;;8.49;68.81;101224.84;12697709;23;20093;-62
2023/02/20 08:17:40;;;;;;;11.13;4.75;;;;;;;8.67;68.59;101221.44;12706017;23;20046;-64
2023/02/20 08:22:49;;;;;;;10.20;4.60;;;;;;;8.70;68.72;101224.66;12700362;23;20041;-62
2023/02/20 08:27:50;;;;;;;9.88;3.90;;;;;;;8.86;68.77;101212.53;12696193;23;20025;-62
2023/02/20 08:32:53;;;;;;;10.05;4.78;;;;;;;9.01;68.41;101205.72;12678557;23;20072;-60
2023/02/20 08:37:55;;;;;;;10.98;4.63;;;;;;;9.15;68.46;101211.63;12674141;23;20022;-61
2023/02/20 08:42:56;;;;;;;9.45;4.25;;;;;;;9.16;67.80;101207.94;12673993;23;20037;-62
2023/02/20 08:48:00;;;;;;;7.38;4.05;;;;;;;9.23;67.83;101214.44;12675885;23;20081;-59
2023/02/20 08:53:02;;;;;;;13.68;5.88;;;;;;;9.25;67.80;101212.44;12676028;23;20086;-61
2023/02/20 08:58:03;;;;;;;6.30;3.42;;;;;;;9.35;68.04;101207.03;12672440;23;20057;-64
2023/02/20 09:03:07;;;;;;;14.63;4.28;;;;;;;9.47;67.74;101204.00;12673075;23;20018;-58
2023/02/20 09:08:09;;;;;;;13.93;4.97;;;;;;;9.64;67.56;101210.44;12678603;23;20022;-60
2023/02/20 09:13:11;;;;;;;14.70;5.57;;;;;;;9.88;67.16;101211.75;12677199;23;20013;-59
2023/02/20 09:18:13;;;;;;;12.30;5.30;;;;;;;10.07;66.83;101211.63;12673993;23;20018;-59
2023/02/20 09:23:14;;;;;;;15.05;6.47;;;;;;;10.17;66.75;101219.63;12676055;23;20088;-63
2023/02/20 09:28:16;;;;;;;9.68;5.00;;;;;;;10.19;66.87;101222.13;12676812;23;20341;-60
2023/02/20 09:33:17;;;;;;;11.93;5.68;;;;;;;10.29;66.92;101226.47;12661321;23;20018;-58
2023/02/20 09:38:18;;;;;;;13.90;6.32;;;;;;;10.43;66.60;101222.44;12691436;23;20022;-62
2023/02/20 09:43:31;;;;;;;16.77;7.45;;;;;;;10.67;66.51;101216.41;12685718;23;20026;-60
2023/02/20 09:48:47;;;;;;;13.43;6.20;;;;;;;10.68;66.54;101207.38;12676912;23;20018;-60
2023/02/20 09:54:24;;;;;;;15.98;6.65;;;;;;;10.96;65.84;101201.84;12675538;23;20017;-59
2023/02/20 09:59:33;;;;;;;16.42;7.38;;;;;;;11.01;65.91;101210.28;12669940;23;20037;-59
2023/02/20 10:04:41;;;;;;;15.88;6.78;;;;;;;11.23;65.54;101203.53;12680154;23;20022;-60
2023/02/20 10:10:09;;;;;;;18.55;7.72;;;;;;;11.26;65.42;101184.38;12674214;23;20022;-59
2023/02/20 10:15:22;;;;;;;15.40;7.75;;;;;;;11.29;65.16;101200.22;12677549;23;20299;-60
2023/02/20 10:20:36;;;;;;;15.65;7.40;;;;;;;11.53;64.27;101190.56;12676761;23;20026;-62
2023/02/20 10:25:45;;;;;;;15.48;8.23;;;;;;;11.69;64.07;101182.56;12675735;23;20030;-62
2023/02/20 10:30:57;;;;;;;15.82;7.00;;;;;;;11.76;63.62;101174.66;12672647;23;20021;-58
2023/02/20 10:36:10;;;;;;;13.35;5.70;;;;;;;11.81;63.23;101171.47;12679911;23;20327;-60
2023/02/20 10:41:39;;;;;;;11.50;4.18;;;;;;;12.04;62.93;101153.72;12683745;23;20025;-61
2023/02/20 10:47:06;;;;;;;13.15;6.10;;;;;;;12.09;62.28;101148.69;12680242;23;20022;-58
2023/02/20 10:52:14;;;;;;;14.40;5.50;;;;;;;12.26;61.54;101136.06;12682121;23;20022;-63
2023/02/20 10:57:46;;;;;;;14.55;5.85;;;;;;;12.64;60.64;101127.47;12658187;23;20014;-59
2023/02/20 11:03:03;;;;;;;10.18;4.70;;;;;;;12.73;60.52;101126.41;12678084;23;20022;-61
2023/02/20 11:08:04;;;;;;;13.17;5.97;;;;;;;12.86;59.90;101118.66;12678518;23;20164;-62
2023/02/20 11:13:14;;;;;;;12.45;6.07;;;;;;;13.08;59.00;101100.03;12676499;23;20048;-59
2023/02/20 11:18:25;;;;;;;11.52;5.78;;;;;;;13.34;58.87;101093.56;12670005;23;20029;-59
2023/02/20 11:23:41;;;;;;;12.65;5.28;;;;;;;13.44;57.64;101086.06;12671774;23;20102;-60
2023/02/20 11:28:42;;;;;;;10.07;4.22;;;;;;;13.46;57.08;101074.06;12683371;23;20021;-63
2023/02/20 11:33:46;;;;;;;11.57;4.57;;;;;;;13.69;56.68;101062.47;12683925;23;20041;-64
2023/02/20 11:38:56;;;;;;;10.60;4.30;;;;;;;13.87;56.12;101056.78;12687049;23;20048;-61
2023/02/20 11:44:06;;;;;;;13.40;4.97;;;;;;;14.02;55.94;101046.00;12687009;23;20025;-60
2023/02/20 11:49:10;;;;;;;8.20;3.60;;;;;;;14.15;54.89;101051.63;12683938;23;20026;-59
2023/02/20 11:54:16;;;;;;;6.68;3.28;;;;;;;14.40;54.27;101052.25;12666969;23;20037;-59
2023/02/20 11:59:36;;;;;;;5.22;2.53;;;;;;;14.43;53.44;101043.75;12677216;23;20072;-60
2023/02/20 12:04:38;;;;;;;7.93;2.67;;;;;;;14.54;52.80;101031.66;12672699;23;20172;-60
2023/02/20 12:09:40;;;;;;;6.50;2.63;;;;;;;14.63;52.23;101016.19;12674319;23;20357;-59
2023/02/20 12:14:42;;;;;;;6.40;2.42;;;;;;;14.76;51.70;101019.09;12673077;23;20615;-59
2023/02/20 12:20:04;;;;;;;6.30;2.70;;;;;;;14.83;51.27;101006.50;12672325;23;20093;-59
2023/02/20 12:25:24;;;;;;;6.43;2.42;;;;;;;14.99;50.94;101005.47;12682008;23;20033;-60
2023/02/20 12:30:46;;;;;;;6.20;2.65;;;;;;;15.06;50.61;100994.72;12677025;23;20017;-60
2023/02/20 12:36:20;;;;;;;4.53;2.30;;;;;;;15.25;50.19;100990.56;12683384;23;20017;-63
2023/02/20 12:41:38;;;;;;;5.90;1.70;;;;;;;15.40;49.38;100972.41;12687006;23;20033;-59
2023/02/20 12:47:07;;;;;;;6.80;2.30;;;;;;;15.64;48.91;100967.63;12687907;23;20259;-60
2023/02/20 12:52:23;;;;;;;4.32;2.08;;;;;;;15.60;48.40;100961.75;12673374;23;20029;-65
2023/02/20 12:58:05;;;;;;;4.40;2.10;;;;;;;15.78;48.43;100938.81;12700157;23;20033;-61
2023/02/20 13:03:15;;;;;;;9.30;1.75;;;;;;;15.82;47.89;100931.97;12695108;23;20014;-63
2023/02/20 13:08:23;;;;;;;4.93;1.85;;;;;;;16.06;47.28;100925.25;12701166;23;20026;-61
2023/02/20 13:13:35;;;;;;;4.78;1.83;;;;;;;16.22;47.13;100902.41;12666801;23;20029;-63
2023/02/20 13:18:52;;;;;;;6.78;2.30;;;;;;;16.26;47.18;100901.78;12705826;23;20026;-63
2023/02/20 13:24:25;;;;;;;5.72;2.40;;;;;;;16.19;46.87;100878.38;12706352;23;20090;-64
2023/02/20 13:29:28;;;;;;;4.93;2.28;;;;;;;16.20;46.46;100872.75;12702109;23;20022;-60
2023/02/20 13:34:38;;;;;;;3.65;1.38;;;;;;;16.26;46.05;100861.09;12708086;23;20485;-63
2023/02/20 13:39:41;;;;;;;5.50;1.98;;;;;;;16.28;45.74;100860.06;12711930;23;20105;-62
2023/02/20 13:44:45;;;;;;;6.80;2.00;;;;;;;16.33;45.14;100847.59;12704674;23;20102;-61
2023/02/20 13:49:46;;;;;;;4.40;1.35;;;;;;;16.48;44.84;100828.44;12706996;23;20027;-61
2023/02/20 13:54:48;;;;;;;4.80;1.40;;;;;;;16.59;44.35;100824.31;12702651;23;20021;-63
2023/02/20 13:59:53;;;;;;;4.05;1.85;;;;;;;16.71;43.83;100822.66;12698701;23;20010;-59
2023/02/20 14:05:01;;;;;;;5.43;2.03;;;;;;;16.76;43.73;100812.00;12696512;23;20037;-61
2023/02/20 14:10:13;;;;;;;5.97;1.70;;;;;;;16.65;43.73;100790.91;12696735;23;20045;-61
2023/02/20 14:15:14;;;;;;;3.28;1.50;;;;;;;16.60;43.81;100804.25;12698788;23;20018;-69
2023/02/20 14:20:26;;;;;;;5.10;1.13;;;;;;;16.58;43.56;100804.44;12698364;23;20029;-62
2023/02/20 14:25:28;;;;;;;4.70;1.30;;;;;;;16.66;43.88;100803.44;12702256;23;20033;-60
2023/02/20 14:30:31;;;;;;;7.13;1.52;;;;;;;16.61;43.69;100804.06;12696349;23;20018;-61
2023/02/20 14:35:56;;;;;;;5.45;1.25;;;;;;;16.47;43.13;100780.63;12692719;23;20022;-63
2023/02/20 14:40:58;;;;;;;3.28;1.10;;;;;;;16.52;43.20;100774.59;12700629;23;20033;-60
2023/02/20 14:46:07;;;;;;;5.47;0.95;;;;;;;16.56;43.06;100768.53;12692213;23;20032;-60
2023/02/20 14:51:20;;;;;;;3.17;1.00;;;;;;;16.52;43.09;100752.88;12695382;23;20030;-64
2023/02/20 14:56:22;;;;;;;2.63;0.88;;;;;;;16.62;43.57;100750.59;12699240;23;20323;-62
2023/02/20 15:01:26;;;;;;;2.67;1.00;;;;;;;16.86;43.45;100770.91;12701181;23;20021;-59
2023/02/20 15:06:29;;;;;;;4.85;0.90;;;;;;;16.98;43.17;100760.25;12701898;23;20014;-63
2023/02/20 15:11:32;;;;;;;5.32;0.88;;;;;;;17.02;43.13;100766.94;12700227;23;20030;-63
2023/02/20 15:16:38;;;;;;;7.95;1.25;;;;;;;17.16;43.28;100768.66;12700028;23;20032;-64
2023/02/20 15:21:41;;;;;;;5.28;0.82;;;;;;;17.27;43.12;100750.03;12700662;23;20018;-62
2023/02/20 15:26:42;;;;;;;3.28;0.80;;;;;;;17.43;42.80;100755.03;12702116;23;20025;-60
2023/02/20 15:32:05;;;;;;;6.88;1.75;;;;;;;17.42;42.76;100747.94;12702466;23;20096;-61
2023/02/20 15:37:18;;;;;;;6.15;0.90;;;;;;;17.11;43.58;100763.00;12692389;23;20026;-62
2023/02/20 15:42:25;;;;;;;6.97;1.23;;;;;;;17.33;43.29;100770.94;12683697;23;20092;-59
2023/02/20 15:47:26;;;;;;;4.55;1.00;;;;;;;17.21;43.57;100757.16;12680718;23;20026;-59
2023/02/20 15:52:28;;;;;;;4.72;0.80;;;;;;;17.06;43.63;100770.91;12688120;23;20032;-59
2023/02/20 15:57:30;;;;;;;8.50;1.42;;;;;;;16.76;44.00;100765.03;12675645;23;20052;-59
2023/02/20 16:02:32;;;;;;;2.28;0.77;;;;;;;16.48;44.56;100744.28;12686324;23;20027;-61
2023/02/20 16:07:33;;;;;;;3.20;1.00;;;;;;;16.30;44.71;100749.47;12696919;23;20611;-60
2023/02/20 16:12:36;;;;;;;8.93;1.20;;;;;;;16.17;44.89;100742.97;12689742;23;20022;-58
2023/02/20 16:17:37;;;;;;;10.30;2.78;;;;;;;16.01;45.11;100738.72;12697263;23;20022;-62
2023/02/20 16:22:39;;;;;;;6.32;0.77;;;;;;;15.86;45.32;100735.31;12701988;23;20030;-61
2023/02/20 16:27:40;;;;;;;8.60;1.15;;;;;;;15.73;45.56;100722.53;12697162;23;20025;-61
2023/02/20 16:32:43;;;;;;;2.65;0.70;;;;;;;15.53;46.00;100733.22;12696758;23;20033;-63
2023/02/20 16:37:45;;;;;;;5.18;0.80;;;;;;;15.47;46.06;100731.31;12707329;23;20032;-62
2023/02/20 16:42:46;;;;;;;8.88;1.17;;;;;;;15.42;46.33;100736.47;12696802;23;20068;-59
2023/02/20 16:47:52;;;;;;;4.30;0.77;;;;;;;15.32;46.63;100733.28;12698698;23;20014;-63
2023/02/20 16:53:01;;;;;;;3.92;0.80;;;;;;;15.26;46.75;100745.75;12688430;23;20349;-60
2023/02/20 16:58:03;;;;;;;7.30;0.90;;;;;;;15.13;46.92;100738.38;12699181;23;20296;-60
2023/02/20 17:03:05;;;;;;;2.38;0.82;;;;;;;15.01;47.18;100761.63;12698125;23;20018;-59
2023/02/20 17:08:07;;;;;;;3.88;1.13;;;;;;;14.95;47.38;100751.53;12702377;23;20280;-59
2023/02/20 17:13:08;;;;;;;6.47;0.70;;;;;;;14.80;47.62;100754.34;12698954;23;20037;-62
2023/02/20 17:18:10;;;;;;;6.70;1.38;;;;;;;14.75;47.59;100754.94;12680404;23;20014;-62
2023/02/20 17:23:11;;;;;;;5.43;1.23;;;;;;;14.67;47.93;100768.56;12695849;23;20057;-62
2023/02/20 17:28:14;;;;;;;5.57;1.60;;;;;;;14.60;47.98;100770.38;12684477;23;20029;-63
2023/02/20 17:33:16;;;;;;;4.10;1.50;;;;;;;14.42;48.50;100779.72;12677899;23;20014;-60
2023/02/20 17:38:17;;;;;;;4.40;1.63;;;;;;;14.37;48.71;100784.84;12680922;23;20022;-62
2023/02/20 17:43:18;;;;;;;4.40;1.17;;;;;;;14.26;49.05;100790.78;12679173;23;20080;-60
2023/02/20 17:48:20;;;;;;;4.10;1.30;;;;;;;14.18;49.28;100794.41;12680366;23;20084;-60
2023/02/20 17:53:21;;;;;;;2.60;0.98;;;;;;;14.15;49.52;100791.25;12685856;23;20022;-62
2023/02/20 17:58:22;;;;;;;2.05;0.82;;;;;;;14.08;49.59;100797.41;12687592;23;20023;-60
2023/02/20 18:03:24;;;;;;;5.78;1.30;;;;;;;13.95;49.95;100804.50;12690180;23;20080;-62
2023/02/20 18:08:26;;;;;;;3.35;1.45;;;;;;;13.82;50.41;100799.72;12682505;23;20048;-61
2023/02/20 18:13:27;;;;;;;3.00;1.10;;;;;;;13.69;50.41;100805.81;12685738;23;20080;-60
2023/02/20 18:18:29;;;;;;;5.63;1.30;;;;;;;13.63;50.81;100811.94;12686545;23;20018;-62
2023/02/20 18:23:30;;;;;;;3.63;1.38;;;;;;;13.55;50.81;100812.03;12696193;23;20085;-62
2023/02/20 18:28:31;;;;;;;4.55;1.90;;;;;;;13.48;50.71;100822.72;12668694;23;20049;-62
2023/02/20 18:33:33;;;;;;;3.53;1.48;;;;;;;13.44;50.84;100816.84;12685314;23;20006;-63
2023/02/20 18:38:35;;;;;;;4.05;1.30;;;;;;;13.40;50.71;100822.78;12693610;23;20413;-62
2023/02/20 18:43:39;;;;;;;4.13;1.25;;;;;;;13.37;50.74;100825.84;12697674;23;20041;-64
2023/02/20 18:48:41;;;;;;;6.90;1.83;;;;;;;13.26;50.84;100833.34;12678232;23;20014;-62
2023/02/20 18:53:43;;;;;;;6.47;2.28;;;;;;;13.10;51.13;100834.31;12693195;23;20054;-63
2023/02/20 18:58:45;;;;;;;10.75;2.15;;;;;;;12.93;51.97;100831.91;12689933;23;20022;-62
2023/02/20 19:03:48;;;;;;;3.70;1.67;;;;;;;12.77;51.86;100824.78;12689587;23;20054;-62
2023/02/20 19:08:49;;;;;;;8.68;1.75;;;;;;;12.66;52.38;100826.88;12685435;23;20049;-63
2023/02/20 19:13:51;;;;;;;6.75;1.70;;;;;;;12.61;51.98;100825.72;12678529;23;20030;-63
2023/02/20 19:18:52;;;;;;;7.03;2.35;;;;;;;12.54;52.76;100822.03;12686326;23;20029;-61
2023/02/20 19:23:53;;;;;;;7.50;1.90;;;;;;;12.54;52.65;100814.81;12693481;23;20018;-63
2023/02/20 19:28:55;;;;;;;6.40;2.00;;;;;;;12.53;52.37;100818.50;12693255;23;20022;-62
2023/02/20 19:33:56;;;;;;;6.90;1.95;;;;;;;12.51;52.57;100817.84;12674684;23;20018;-61
2023/02/20 19:38:58;;;;;;;6.72;2.05;;;;;;;12.44;53.16;100809.63;12669869;23;20020;-61
2023/02/20 19:43:59;;;;;;;13.38;4.22;;;;;;;12.46;52.99;100813.00;12680324;23;20021;-64
2023/02/20 19:49:01;;;;;;;9.82;3.20;;;;;;;12.44;52.92;100815.03;12665134;23;20076;-63
2023/02/20 19:54:02;;;;;;;7.05;2.63;;;;;;;12.35;53.43;100824.16;12663357;23;20065;-64
2023/02/20 19:59:04;;;;;;;7.53;2.33;;;;;;;12.37;53.58;100821.31;12671085;23;20087;-61
2023/02/20 20:04:05;;;;;;;12.02;2.60;;;;;;;12.33;53.87;100823.50;12657405;23;20029;-62
2023/02/20 20:09:06;;;;;;;9.25;2.58;;;;;;;12.26;53.86;100823.38;12657953;23;20041;-63
2023/02/20 20:14:19;;;;;;;7.55;2.40;;;;;;;12.25;54.18;100821.69;12660518;23;20021;-61
2023/02/20 20:19:20;;;;;;;6.13;2.28;;;;;;;12.27;54.14;100818.81;12659956;23;20114;-63
2023/02/20 20:24:21;;;;;;;8.27;2.78;;;;;;;12.30;54.03;100810.38;12656813;23;20018;-63
2023/02/20 20:29:23;;;;;;;6.53;2.00;;;;;;;12.24;54.55;100813.75;12660157;23;20025;-63
2023/02/20 20:34:25;;;;;;;7.03;3.03;;;;;;;12.24;54.18;100824.53;12659500;23;20018;-63
2023/02/20 20:39:26;;;;;;;8.27;3.40;;;;;;;12.22;54.13;100815.78;12669964;23;20327;-64
2023/02/20 20:44:28;;;;;;;6.75;2.45;;;;;;;12.11;54.81;100819.72;12656623;23;20030;-64
2023/02/20 20:49:29;;;;;;;9.23;3.33;;;;;;;12.09;54.67;100814.50;12694307;23;20470;-64
2023/02/20 20:54:31;;;;;;;6.38;2.38;;;;;;;12.06;54.66;100811.31;12687730;23;20017;-61
2023/02/20 20:59:32;;;;;;;6.60;2.90;;;;;;;12.09;54.93;100814.50;12676856;23;20343;-63
2023/02/20 21:04:33;;;;;;;4.93;2.53;;;;;;;12.10;54.77;100815.34;12670979;23;20022;-63
2023/02/20 21:09:35;;;;;;;4.25;2.47;;;;;;;12.02;54.59;100808.13;12676487;23;20018;-64
2023/02/20 21:14:37;;;;;;;11.18;3.67;;;;;;;11.96;54.88;100819.59;12683229;23;20037;-63
2023/02/20 21:19:41;;;;;;;9.55;2.90;;;;;;;11.81;54.96;100819.47;12683623;23;20025;-61
2023/02/20 21:24:42;;;;;;;14.50;4.72;;;;;;;11.70;55.03;100820.66;12683078;23;20073;-64
2023/02/20 21:29:43;;;;;;;9.88;3.83;;;;;;;11.56;55.55;100818.66;12676258;23;20033;-63
2023/02/20 21:34:45;;;;;;;10.20;4.60;;;;;;;11.39;55.65;100831.28;12681732;23;20036;-64
2023/02/20 21:39:47;;;;;;;10.65;3.90;;;;;;;11.16;56.07;100817.69;12689123;23;20025;-63
2023/02/20 21:44:48;;;;;;;13.70;6.50;;;;;;;10.87;56.44;100840.53;12683787;23;20076;-63
2023/02/20 21:49:50;;;;;;;12.73;4.85;;;;;;;10.84;56.79;100824.75;12668151;23;20365;-64
2023/02/20 21:54:53;;;;;;;15.65;6.28;;;;;;;10.52;57.53;100812.91;12670944;23;20018;-64
